sensor_id;sensor_type;location;lat;lon;timestamp;pressure;altitude;pressure_sealevel;temperature;humidity
56582;BME280;42463;52.214;21.238;2023-03-22T00:01:42;100361.14;;;5.71;60.72
56582;BME280;42463;52.214;21.238;2023-03-22T00:03:49;100358.67;;;5.69;60.80
56582;BME280;42463;52.214;21.238;2023-03-22T00:05:56;100359.21;;;5.69;60.86
56582;BME280;42463;52.214;21.238;2023-03-22T00:08:01;100358.50;;;5.69;60.83
56582;BME280;42463;52.214;21.238;2023-03-22T00:10:08;100354.04;;;5.69;60.71
56582;BME280;42463;52.214;21.238;2023-03-22T00:12:13;100354.08;;;5.69;60.67
56582;BME280;42463;52.214;21.238;2023-03-22T00:14:17;100352.80;;;5.68;60.61
56582;BME280;42463;52.214;21.238;2023-03-22T00:16:21;100347.27;;;5.66;60.65
56582;BME280;42463;52.214;21.238;2023-03-22T00:18:25;100349.80;;;5.66;60.62
56582;BME280;42463;52.214;21.238;2023-03-22T00:20:29;100345.51;;;5.65;60.53
56582;BME280;42463;52.214;21.238;2023-03-22T00:22:35;100340.04;;;5.64;60.55
56582;BME280;42463;52.214;21.238;2023-03-22T00:24:40;100338.05;;;5.62;60.59
56582;BME280;42463;52.214;21.238;2023-03-22T00:26:44;100330.87;;;5.56;60.63
56582;BME280;42463;52.214;21.238;2023-03-22T00:28:50;100332.94;;;5.56;60.73
56582;BME280;42463;52.214;21.238;2023-03-22T00:30:54;100335.05;;;5.55;60.63
56582;BME280;42463;52.214;21.238;2023-03-22T00:33:02;100334.66;;;5.53;60.66
56582;BME280;42463;52.214;21.238;2023-03-22T00:35:07;100331.33;;;5.52;60.49
56582;BME280;42463;52.214;21.238;2023-03-22T00:37:12;100332.23;;;5.49;60.73
56582;BME280;42463;52.214;21.238;2023-03-22T00:39:18;100331.12;;;5.48;60.55
56582;BME280;42463;52.214;21.238;2023-03-22T00:41:22;100333.18;;;5.44;60.51
56582;BME280;42463;52.214;21.238;2023-03-22T00:43:26;100330.21;;;5.43;60.70
56582;BME280;42463;52.214;21.238;2023-03-22T00:45:31;100327.33;;;5.42;60.66
56582;BME280;42463;52.214;21.238;2023-03-22T00:47:38;100323.34;;;5.39;60.53
56582;BME280;42463;52.214;21.238;2023-03-22T00:49:43;100327.66;;;5.38;60.73
56582;BME280;42463;52.214;21.238;2023-03-22T00:51:47;100326.76;;;5.37;60.60
56582;BME280;42463;52.214;21.238;2023-03-22T00:53:51;100329.34;;;5.35;60.58
56582;BME280;42463;52.214;21.238;2023-03-22T00:55:57;100326.27;;;5.33;60.62
56582;BME280;42463;52.214;21.238;2023-03-22T00:58:02;100324.95;;;5.32;60.84
56582;BME280;42463;52.214;21.238;2023-03-22T01:00:07;100317.38;;;5.31;60.64
56582;BME280;42463;52.214;21.238;2023-03-22T01:02:15;100316.29;;;5.29;60.48
56582;BME280;42463;52.214;21.238;2023-03-22T01:04:19;100313.67;;;5.26;60.57
56582;BME280;42463;52.214;21.238;2023-03-22T01:06:27;100314.36;;;5.24;60.40
56582;BME280;42463;52.214;21.238;2023-03-22T01:08:32;100314.70;;;5.22;60.65
56582;BME280;42463;52.214;21.238;2023-03-22T01:10:37;100315.29;;;5.20;60.86
56582;BME280;42463;52.214;21.238;2023-03-22T01:12:42;100315.33;;;5.20;60.91
56582;BME280;42463;52.214;21.238;2023-03-22T01:14:46;100317.44;;;5.19;60.75
56582;BME280;42463;52.214;21.238;2023-03-22T01:16:50;100313.95;;;5.15;60.85
56582;BME280;42463;52.214;21.238;2023-03-22T01:18:56;100313.84;;;5.13;60.75
56582;BME280;42463;52.214;21.238;2023-03-22T01:21:01;100314.63;;;5.14;60.70
56582;BME280;42463;52.214;21.238;2023-03-22T01:23:05;100315.30;;;5.13;60.95
56582;BME280;42463;52.214;21.238;2023-03-22T01:25:10;100311.48;;;5.14;60.93
56582;BME280;42463;52.214;21.238;2023-03-22T01:27:14;100305.61;;;5.13;60.85
56582;BME280;42463;52.214;21.238;2023-03-22T01:29:18;100301.39;;;5.09;60.82
56582;BME280;42463;52.214;21.238;2023-03-22T01:31:22;100308.30;;;5.13;60.90
56582;BME280;42463;52.214;21.238;2023-03-22T01:33:26;100311.15;;;5.13;60.82
56582;BME280;42463;52.214;21.238;2023-03-22T01:35:30;100310.91;;;5.13;60.93
56582;BME280;42463;52.214;21.238;2023-03-22T01:37:35;100310.50;;;5.12;60.89
56582;BME280;42463;52.214;21.238;2023-03-22T01:39:40;100306.13;;;5.11;60.93
56582;BME280;42463;52.214;21.238;2023-03-22T01:41:45;100304.56;;;5.11;60.93
56582;BME280;42463;52.214;21.238;2023-03-22T01:46:09;100299.27;;;5.11;61.19
56582;BME280;42463;52.214;21.238;2023-03-22T01:48:17;100297.81;;;5.11;61.08
56582;BME280;42463;52.214;21.238;2023-03-22T01:50:24;100295.19;;;5.09;61.23
56582;BME280;42463;52.214;21.238;2023-03-22T01:52:28;100289.70;;;5.07;61.34
56582;BME280;42463;52.214;21.238;2023-03-22T01:54:40;100280.31;;;5.02;61.25
56582;BME280;42463;52.214;21.238;2023-03-22T01:56:57;100283.29;;;5.04;61.21
56582;BME280;42463;52.214;21.238;2023-03-22T01:59:09;100281.30;;;5.03;61.44
56582;BME280;42463;52.214;21.238;2023-03-22T02:01:40;100279.95;;;5.01;61.75
56582;BME280;42463;52.214;21.238;2023-03-22T02:03:45;100278.56;;;5.00;61.57
56582;BME280;42463;52.214;21.238;2023-03-22T02:05:51;100279.28;;;4.98;61.61
56582;BME280;42463;52.214;21.238;2023-03-22T02:07:57;100274.66;;;4.97;61.53
56582;BME280;42463;52.214;21.238;2023-03-22T02:10:03;100276.66;;;4.96;61.67
56582;BME280;42463;52.214;21.238;2023-03-22T02:12:18;100272.64;;;4.96;61.91
56582;BME280;42463;52.214;21.238;2023-03-22T02:14:35;100270.91;;;4.96;61.86
56582;BME280;42463;52.214;21.238;2023-03-22T02:17:07;100270.59;;;4.94;62.09
56582;BME280;42463;52.214;21.238;2023-03-22T02:19:30;100269.07;;;4.93;62.04
56582;BME280;42463;52.214;21.238;2023-03-22T02:24:13;100271.04;;;4.91;62.28
56582;BME280;42463;52.214;21.238;2023-03-22T02:26:30;100277.60;;;4.93;62.57
56582;BME280;42463;52.214;21.238;2023-03-22T02:28:43;100274.82;;;4.94;62.89
56582;BME280;42463;52.214;21.238;2023-03-22T02:31:07;100272.27;;;4.94;62.80
56582;BME280;42463;52.214;21.238;2023-03-22T02:33:30;100269.10;;;4.95;62.79
56582;BME280;42463;52.214;21.238;2023-03-22T02:35:48;100267.02;;;4.95;62.71
56582;BME280;42463;52.214;21.238;2023-03-22T02:37:59;100266.11;;;4.95;62.80
56582;BME280;42463;52.214;21.238;2023-03-22T02:40:09;100266.21;;;4.95;62.88
56582;BME280;42463;52.214;21.238;2023-03-22T02:42:24;100265.36;;;4.93;62.96
56582;BME280;42463;52.214;21.238;2023-03-22T02:44:35;100266.29;;;4.90;62.98
56582;BME280;42463;52.214;21.238;2023-03-22T02:46:44;100263.20;;;4.90;62.90
56582;BME280;42463;52.214;21.238;2023-03-22T02:48:51;100263.65;;;4.89;63.27
56582;BME280;42463;52.214;21.238;2023-03-22T02:50:58;100258.70;;;4.89;63.15
56582;BME280;42463;52.214;21.238;2023-03-22T02:53:05;100260.48;;;4.89;63.39
56582;BME280;42463;52.214;21.238;2023-03-22T02:55:15;100256.45;;;4.89;63.31
56582;BME280;42463;52.214;21.238;2023-03-22T02:57:24;100252.77;;;4.90;63.32
56582;BME280;42463;52.214;21.238;2023-03-22T02:59:31;100248.22;;;4.90;63.40
56582;BME280;42463;52.214;21.238;2023-03-22T03:01:42;100245.61;;;4.91;63.72
56582;BME280;42463;52.214;21.238;2023-03-22T03:03:48;100243.63;;;4.91;63.76
56582;BME280;42463;52.214;21.238;2023-03-22T03:05:54;100245.56;;;4.91;63.86
56582;BME280;42463;52.214;21.238;2023-03-22T03:08:00;100247.77;;;4.94;63.90
56582;BME280;42463;52.214;21.238;2023-03-22T03:10:07;100245.79;;;4.94;63.87
56582;BME280;42463;52.214;21.238;2023-03-22T03:12:13;100247.44;;;4.95;63.84
56582;BME280;42463;52.214;21.238;2023-03-22T03:14:21;100246.27;;;4.97;63.94
56582;BME280;42463;52.214;21.238;2023-03-22T03:16:26;100243.94;;;4.98;63.93
56582;BME280;42463;52.214;21.238;2023-03-22T03:18:36;100239.41;;;4.98;63.72
56582;BME280;42463;52.214;21.238;2023-03-22T03:20:57;100242.52;;;4.99;63.70
56582;BME280;42463;52.214;21.238;2023-03-22T03:23:10;100246.09;;;5.00;63.66
56582;BME280;42463;52.214;21.238;2023-03-22T03:25:22;100246.52;;;5.00;63.49
56582;BME280;42463;52.214;21.238;2023-03-22T03:27:29;100247.17;;;5.00;63.68
56582;BME280;42463;52.214;21.238;2023-03-22T03:29:37;100247.79;;;5.01;63.65
56582;BME280;42463;52.214;21.238;2023-03-22T03:31:42;100248.56;;;5.01;63.51
56582;BME280;42463;52.214;21.238;2023-03-22T03:33:50;100247.83;;;5.02;63.56
56582;BME280;42463;52.214;21.238;2023-03-22T03:35:58;100239.55;;;5.01;63.57
56582;BME280;42463;52.214;21.238;2023-03-22T03:38:04;100237.63;;;4.99;63.42
56582;BME280;42463;52.214;21.238;2023-03-22T03:40:12;100238.58;;;4.99;63.56
56582;BME280;42463;52.214;21.238;2023-03-22T03:42:18;100235.56;;;4.98;63.66
56582;BME280;42463;52.214;21.238;2023-03-22T03:44:23;100231.60;;;4.97;63.52
56582;BME280;42463;52.214;21.238;2023-03-22T03:46:27;100230.77;;;4.97;63.68
56582;BME280;42463;52.214;21.238;2023-03-22T03:48:32;100234.68;;;4.96;63.57
56582;BME280;42463;52.214;21.238;2023-03-22T03:50:37;100234.73;;;4.94;63.77
56582;BME280;42463;52.214;21.238;2023-03-22T03:52:42;100233.88;;;4.94;63.98
56582;BME280;42463;52.214;21.238;2023-03-22T03:54:46;100238.45;;;4.95;64.17
56582;BME280;42463;52.214;21.238;2023-03-22T03:56:52;100235.65;;;4.94;64.22
56582;BME280;42463;52.214;21.238;2023-03-22T03:58:56;100231.62;;;4.92;64.22
56582;BME280;42463;52.214;21.238;2023-03-22T04:01:00;100232.20;;;4.92;64.28
56582;BME280;42463;52.214;21.238;2023-03-22T04:03:12;100236.65;;;4.94;64.37
56582;BME280;42463;52.214;21.238;2023-03-22T04:05:39;100229.58;;;4.94;64.47
56582;BME280;42463;52.214;21.238;2023-03-22T04:07:43;100235.54;;;4.94;64.52
56582;BME280;42463;52.214;21.238;2023-03-22T04:09:48;100238.66;;;4.94;64.47
56582;BME280;42463;52.214;21.238;2023-03-22T04:11:59;100239.12;;;4.95;64.47
56582;BME280;42463;52.214;21.238;2023-03-22T04:14:03;100238.77;;;4.96;64.57
56582;BME280;42463;52.214;21.238;2023-03-22T04:16:08;100235.70;;;4.98;64.70
56582;BME280;42463;52.214;21.238;2023-03-22T04:18:13;100238.55;;;4.98;64.59
56582;BME280;42463;52.214;21.238;2023-03-22T04:20:17;100237.47;;;4.98;64.70
56582;BME280;42463;52.214;21.238;2023-03-22T04:22:23;100238.09;;;4.98;64.72
56582;BME280;42463;52.214;21.238;2023-03-22T04:24:27;100233.88;;;4.98;64.63
56582;BME280;42463;52.214;21.238;2023-03-22T04:26:32;100236.77;;;4.97;64.63
56582;BME280;42463;52.214;21.238;2023-03-22T04:28:50;100230.98;;;4.98;64.75
56582;BME280;42463;52.214;21.238;2023-03-22T04:30:55;100231.79;;;4.96;64.56
56582;BME280;42463;52.214;21.238;2023-03-22T04:33:18;100228.96;;;4.94;64.37
56582;BME280;42463;52.214;21.238;2023-03-22T04:36:00;100226.83;;;4.87;64.65
56582;BME280;42463;52.214;21.238;2023-03-22T04:38:09;100233.63;;;4.90;64.71
56582;BME280;42463;52.214;21.238;2023-03-22T04:40:14;100238.89;;;4.89;64.60
56582;BME280;42463;52.214;21.238;2023-03-22T04:42:34;100234.68;;;4.87;64.52
56582;BME280;42463;52.214;21.238;2023-03-22T04:44:44;100236.15;;;4.86;64.63
56582;BME280;42463;52.214;21.238;2023-03-22T04:46:48;100224.75;;;4.76;64.58
56582;BME280;42463;52.214;21.238;2023-03-22T04:48:52;100238.52;;;4.81;64.84
56582;BME280;42463;52.214;21.238;2023-03-22T04:50:57;100239.46;;;4.80;64.84
56582;BME280;42463;52.214;21.238;2023-03-22T04:53:07;100243.86;;;4.79;64.89
56582;BME280;42463;52.214;21.238;2023-03-22T04:55:11;100242.57;;;4.80;64.81
56582;BME280;42463;52.214;21.238;2023-03-22T04:57:18;100239.05;;;4.80;64.78
56582;BME280;42463;52.214;21.238;2023-03-22T04:59:24;100234.75;;;4.80;64.71
56582;BME280;42463;52.214;21.238;2023-03-22T05:01:28;100241.48;;;4.81;64.79
56582;BME280;42463;52.214;21.238;2023-03-22T05:03:39;100241.46;;;4.83;64.77
56582;BME280;42463;52.214;21.238;2023-03-22T05:05:49;100244.99;;;4.82;64.62
56582;BME280;42463;52.214;21.238;2023-03-22T05:07:54;100242.52;;;4.80;64.66
56582;BME280;42463;52.214;21.238;2023-03-22T05:09:59;100241.36;;;4.77;64.63
56582;BME280;42463;52.214;21.238;2023-03-22T05:12:04;100242.17;;;4.74;64.66
56582;BME280;42463;52.214;21.238;2023-03-22T05:14:15;100236.55;;;4.73;64.82
56582;BME280;42463;52.214;21.238;2023-03-22T05:16:19;100241.80;;;4.73;64.83
56582;BME280;42463;52.214;21.238;2023-03-22T05:18:25;100247.39;;;4.72;65.12
56582;BME280;42463;52.214;21.238;2023-03-22T05:20:32;100247.67;;;4.73;65.22
56582;BME280;42463;52.214;21.238;2023-03-22T05:22:52;100248.04;;;4.73;65.33
56582;BME280;42463;52.214;21.238;2023-03-22T05:24:59;100251.50;;;4.75;65.54
56582;BME280;42463;52.214;21.238;2023-03-22T05:27:04;100247.84;;;4.78;65.62
56582;BME280;42463;52.214;21.238;2023-03-22T05:29:08;100248.39;;;4.80;65.48
56582;BME280;42463;52.214;21.238;2023-03-22T05:31:42;100250.39;;;4.83;65.73
56582;BME280;42463;52.214;21.238;2023-03-22T05:33:46;100257.73;;;4.81;65.59
56582;BME280;42463;52.214;21.238;2023-03-22T05:35:51;100258.21;;;4.82;65.83
56582;BME280;42463;52.214;21.238;2023-03-22T05:37:55;100261.41;;;4.86;65.93
56582;BME280;42463;52.214;21.238;2023-03-22T05:40:03;100261.48;;;4.90;65.93
56582;BME280;42463;52.214;21.238;2023-03-22T05:42:13;100261.25;;;4.94;65.95
56582;BME280;42463;52.214;21.238;2023-03-22T05:44:18;100260.27;;;4.97;66.00
56582;BME280;42463;52.214;21.238;2023-03-22T05:46:32;100255.25;;;4.99;65.79
56582;BME280;42463;52.214;21.238;2023-03-22T05:49:01;100258.57;;;5.02;65.84
56582;BME280;42463;52.214;21.238;2023-03-22T05:51:06;100255.27;;;5.01;65.99
56582;BME280;42463;52.214;21.238;2023-03-22T05:53:11;100260.23;;;5.00;66.01
56582;BME280;42463;52.214;21.238;2023-03-22T05:55:24;100261.26;;;5.02;66.14
56582;BME280;42463;52.214;21.238;2023-03-22T05:57:31;100257.42;;;5.04;66.32
56582;BME280;42463;52.214;21.238;2023-03-22T05:59:36;100253.09;;;5.05;66.34
56582;BME280;42463;52.214;21.238;2023-03-22T06:01:41;100249.29;;;5.07;66.69
56582;BME280;42463;52.214;21.238;2023-03-22T06:03:57;100252.31;;;5.11;66.75
56582;BME280;42463;52.214;21.238;2023-03-22T06:06:10;100255.11;;;5.12;66.96
56582;BME280;42463;52.214;21.238;2023-03-22T06:08:29;100261.83;;;5.15;67.24
56582;BME280;42463;52.214;21.238;2023-03-22T06:10:34;100265.38;;;5.17;67.24
56582;BME280;42463;52.214;21.238;2023-03-22T06:12:39;100266.36;;;5.19;67.48
56582;BME280;42463;52.214;21.238;2023-03-22T06:14:47;100269.31;;;5.22;67.52
56582;BME280;42463;52.214;21.238;2023-03-22T06:17:10;100274.73;;;5.26;67.65
56582;BME280;42463;52.214;21.238;2023-03-22T06:19:14;100270.38;;;5.27;67.67
56582;BME280;42463;52.214;21.238;2023-03-22T06:21:19;100270.38;;;5.32;67.80
56582;BME280;42463;52.214;21.238;2023-03-22T06:23:23;100269.56;;;5.33;67.75
56582;BME280;42463;52.214;21.238;2023-03-22T06:25:28;100270.78;;;5.36;68.05
56582;BME280;42463;52.214;21.238;2023-03-22T06:27:32;100266.65;;;5.42;68.13
56582;BME280;42463;52.214;21.238;2023-03-22T06:29:36;100264.30;;;5.46;67.91
56582;BME280;42463;52.214;21.238;2023-03-22T06:31:41;100267.69;;;5.46;68.19
56582;BME280;42463;52.214;21.238;2023-03-22T06:33:45;100268.81;;;5.52;68.34
56582;BME280;42463;52.214;21.238;2023-03-22T06:36:19;100263.92;;;5.59;68.41
56582;BME280;42463;52.214;21.238;2023-03-22T06:38:55;100265.13;;;5.69;68.40
56582;BME280;42463;52.214;21.238;2023-03-22T06:41:00;100271.17;;;5.76;68.20
56582;BME280;42463;52.214;21.238;2023-03-22T06:43:05;100265.17;;;5.83;68.60
56582;BME280;42463;52.214;21.238;2023-03-22T06:45:10;100261.73;;;5.90;68.50
56582;BME280;42463;52.214;21.238;2023-03-22T06:47:18;100260.98;;;5.98;68.57
56582;BME280;42463;52.214;21.238;2023-03-22T06:49:33;100263.52;;;6.06;68.73
56582;BME280;42463;52.214;21.238;2023-03-22T06:51:37;100252.48;;;6.14;68.92
56582;BME280;42463;52.214;21.238;2023-03-22T06:53:41;100256.27;;;6.23;69.01
56582;BME280;42463;52.214;21.238;2023-03-22T06:55:46;100252.33;;;6.34;69.13
56582;BME280;42463;52.214;21.238;2023-03-22T06:57:54;100255.67;;;6.45;69.26
56582;BME280;42463;52.214;21.238;2023-03-22T06:59:58;100249.95;;;6.51;69.42
56582;BME280;42463;52.214;21.238;2023-03-22T07:02:02;100260.13;;;6.68;69.56
56582;BME280;42463;52.214;21.238;2023-03-22T07:04:07;100258.42;;;6.80;69.80
56582;BME280;42463;52.214;21.238;2023-03-22T07:06:11;100256.73;;;6.93;70.18
56582;BME280;42463;52.214;21.238;2023-03-22T07:08:18;100255.83;;;7.05;70.30
56582;BME280;42463;52.214;21.238;2023-03-22T07:10:25;100254.38;;;7.18;70.22
56582;BME280;42463;52.214;21.238;2023-03-22T07:12:29;100251.71;;;7.30;70.13
56582;BME280;42463;52.214;21.238;2023-03-22T07:14:34;100251.94;;;7.46;70.11
56582;BME280;42463;52.214;21.238;2023-03-22T07:16:49;100246.17;;;7.57;69.86
56582;BME280;42463;52.214;21.238;2023-03-22T07:18:55;100244.90;;;7.71;70.12
56582;BME280;42463;52.214;21.238;2023-03-22T07:20:59;100236.53;;;7.85;70.05
56582;BME280;42463;52.214;21.238;2023-03-22T07:23:03;100238.34;;;7.97;69.87
56582;BME280;42463;52.214;21.238;2023-03-22T07:25:10;100232.28;;;8.06;69.56
56582;BME280;42463;52.214;21.238;2023-03-22T07:27:14;100229.04;;;8.15;69.56
56582;BME280;42463;52.214;21.238;2023-03-22T07:29:19;100229.08;;;8.26;69.16
56582;BME280;42463;52.214;21.238;2023-03-22T07:31:23;100229.30;;;8.36;68.50
56582;BME280;42463;52.214;21.238;2023-03-22T07:33:36;100226.42;;;8.45;68.17
56582;BME280;42463;52.214;21.238;2023-03-22T07:35:41;100222.09;;;8.53;67.89
56582;BME280;42463;52.214;21.238;2023-03-22T07:37:46;100219.58;;;8.62;67.97
56582;BME280;42463;52.214;21.238;2023-03-22T07:40:04;100217.30;;;8.72;67.77
56582;BME280;42463;52.214;21.238;2023-03-22T07:42:09;100217.03;;;8.83;67.59
56582;BME280;42463;52.214;21.238;2023-03-22T07:44:32;100212.70;;;8.93;67.12
56582;BME280;42463;52.214;21.238;2023-03-22T07:47:02;100213.30;;;9.02;67.02
56582;BME280;42463;52.214;21.238;2023-03-22T07:49:13;100210.88;;;9.10;66.41
56582;BME280;42463;52.214;21.238;2023-03-22T07:51:40;100209.21;;;9.19;66.00
56582;BME280;42463;52.214;21.238;2023-03-22T07:53:44;100208.80;;;9.29;65.77
56582;BME280;42463;52.214;21.238;2023-03-22T07:55:49;100205.28;;;9.40;65.45
56582;BME280;42463;52.214;21.238;2023-03-22T07:57:53;100202.23;;;9.51;65.22
56582;BME280;42463;52.214;21.238;2023-03-22T07:59:57;100208.38;;;9.63;64.92
56582;BME280;42463;52.214;21.238;2023-03-22T08:02:08;100202.83;;;9.71;64.16
56582;BME280;42463;52.214;21.238;2023-03-22T08:04:15;100203.21;;;9.81;64.32
56582;BME280;42463;52.214;21.238;2023-03-22T08:06:40;100197.33;;;9.93;63.13
56582;BME280;42463;52.214;21.238;2023-03-22T08:08:44;100188.52;;;10.00;62.98
56582;BME280;42463;52.214;21.238;2023-03-22T08:10:49;100181.81;;;10.07;62.40
56582;BME280;42463;52.214;21.238;2023-03-22T08:12:53;100191.34;;;10.18;61.75
56582;BME280;42463;52.214;21.238;2023-03-22T08:15:00;100194.30;;;10.25;61.81
56582;BME280;42463;52.214;21.238;2023-03-22T08:17:05;100191.92;;;10.37;61.81
56582;BME280;42463;52.214;21.238;2023-03-22T08:19:09;100188.38;;;10.52;61.81
56582;BME280;42463;52.214;21.238;2023-03-22T08:21:13;100187.08;;;10.66;61.14
56582;BME280;42463;52.214;21.238;2023-03-22T08:23:18;100181.27;;;10.74;60.05
56582;BME280;42463;52.214;21.238;2023-03-22T08:25:50;100182.36;;;10.90;60.62
56582;BME280;42463;52.214;21.238;2023-03-22T08:27:54;100187.88;;;11.06;59.96
56582;BME280;42463;52.214;21.238;2023-03-22T08:30:01;100181.44;;;11.21;59.47
56582;BME280;42463;52.214;21.238;2023-03-22T08:32:07;100185.40;;;11.33;58.92
56582;BME280;42463;52.214;21.238;2023-03-22T08:34:11;100178.85;;;11.46;58.79
56582;BME280;42463;52.214;21.238;2023-03-22T08:36:16;100171.08;;;11.58;58.62
56582;BME280;42463;52.214;21.238;2023-03-22T08:38:27;100185.20;;;11.75;57.86
56582;BME280;42463;52.214;21.238;2023-03-22T08:40:32;100181.29;;;11.85;57.62
56582;BME280;42463;52.214;21.238;2023-03-22T08:42:38;100180.16;;;11.94;57.53
56582;BME280;42463;52.214;21.238;2023-03-22T08:44:42;100181.70;;;12.01;56.92
56582;BME280;42463;52.214;21.238;2023-03-22T08:46:46;100178.40;;;12.08;56.84
56582;BME280;42463;52.214;21.238;2023-03-22T08:48:51;100185.15;;;12.17;56.07
56582;BME280;42463;52.214;21.238;2023-03-22T08:51:02;100181.99;;;12.20;55.78
56582;BME280;42463;52.214;21.238;2023-03-22T08:53:14;100179.60;;;12.23;54.91
56582;BME280;42463;52.214;21.238;2023-03-22T08:55:24;100171.05;;;12.18;55.32
56582;BME280;42463;52.214;21.238;2023-03-22T08:57:46;100171.39;;;12.23;56.18
56582;BME280;42463;52.214;21.238;2023-03-22T09:00:24;100172.16;;;12.31;55.77
56582;BME280;42463;52.214;21.238;2023-03-22T09:02:41;100175.30;;;12.33;55.41
56582;BME280;42463;52.214;21.238;2023-03-22T09:04:45;100170.96;;;12.36;55.48
56582;BME280;42463;52.214;21.238;2023-03-22T09:06:49;100171.34;;;12.35;54.84
56582;BME280;42463;52.214;21.238;2023-03-22T09:08:53;100164.92;;;12.30;54.65
56582;BME280;42463;52.214;21.238;2023-03-22T09:10:58;100159.48;;;12.23;55.17
56582;BME280;42463;52.214;21.238;2023-03-22T09:13:05;100158.83;;;12.22;55.58
56582;BME280;42463;52.214;21.238;2023-03-22T09:15:09;100153.45;;;12.24;55.84
56582;BME280;42463;52.214;21.238;2023-03-22T09:17:15;100153.39;;;12.28;55.67
56582;BME280;42463;52.214;21.238;2023-03-22T09:19:20;100148.44;;;12.31;54.99
56582;BME280;42463;52.214;21.238;2023-03-22T09:21:24;100146.42;;;12.31;55.19
56582;BME280;42463;52.214;21.238;2023-03-22T09:23:38;100149.14;;;12.33;54.77
56582;BME280;42463;52.214;21.238;2023-03-22T09:25:44;100149.25;;;12.27;54.28
56582;BME280;42463;52.214;21.238;2023-03-22T09:27:50;100152.73;;;12.18;54.49
56582;BME280;42463;52.214;21.238;2023-03-22T09:29:54;100157.35;;;12.15;55.07
56582;BME280;42463;52.214;21.238;2023-03-22T09:31:57;100154.80;;;12.18;55.34
56582;BME280;42463;52.214;21.238;2023-03-22T09:34:05;100150.77;;;12.25;55.65
56582;BME280;42463;52.214;21.238;2023-03-22T09:36:09;100151.43;;;12.25;54.99
56582;BME280;42463;52.214;21.238;2023-03-22T09:38:14;100148.71;;;12.22;55.35
56582;BME280;42463;52.214;21.238;2023-03-22T09:40:20;100146.64;;;12.23;55.19
56582;BME280;42463;52.214;21.238;2023-03-22T09:42:30;100149.96;;;12.23;55.27
56582;BME280;42463;52.214;21.238;2023-03-22T09:44:38;100138.59;;;12.24;55.28
56582;BME280;42463;52.214;21.238;2023-03-22T09:46:46;100131.73;;;12.25;55.30
56582;BME280;42463;52.214;21.238;2023-03-22T09:48:51;100134.34;;;12.26;55.36
56582;BME280;42463;52.214;21.238;2023-03-22T09:50:56;100135.60;;;12.24;55.30
56582;BME280;42463;52.214;21.238;2023-03-22T09:53:00;100140.92;;;12.20;55.15
56582;BME280;42463;52.214;21.238;2023-03-22T09:55:09;100140.60;;;12.18;55.45
56582;BME280;42463;52.214;21.238;2023-03-22T09:57:20;100132.23;;;12.19;55.56
56582;BME280;42463;52.214;21.238;2023-03-22T09:59:28;100133.16;;;12.21;55.64
56582;BME280;42463;52.214;21.238;2023-03-22T10:01:35;100127.55;;;12.22;55.59
56582;BME280;42463;52.214;21.238;2023-03-22T10:03:51;100124.67;;;12.24;55.44
56582;BME280;42463;52.214;21.238;2023-03-22T10:06:00;100116.52;;;12.26;55.43
56582;BME280;42463;52.214;21.238;2023-03-22T10:08:09;100115.04;;;12.24;54.98
56582;BME280;42463;52.214;21.238;2023-03-22T10:10:18;100117.16;;;12.18;55.38
56582;BME280;42463;52.214;21.238;2023-03-22T10:12:24;100111.50;;;12.16;55.56
56582;BME280;42463;52.214;21.238;2023-03-22T10:14:30;100099.98;;;12.14;55.63
56582;BME280;42463;52.214;21.238;2023-03-22T10:16:37;100096.11;;;12.18;55.95
56582;BME280;42463;52.214;21.238;2023-03-22T10:18:42;100101.39;;;12.19;55.90
56582;BME280;42463;52.214;21.238;2023-03-22T10:20:51;100093.67;;;12.19;55.92
56582;BME280;42463;52.214;21.238;2023-03-22T10:22:57;100092.27;;;12.19;56.12
56582;BME280;42463;52.214;21.238;2023-03-22T10:25:05;100090.79;;;12.20;56.37
56582;BME280;42463;52.214;21.238;2023-03-22T10:27:12;100086.38;;;12.24;56.39
56582;BME280;42463;52.214;21.238;2023-03-22T10:29:20;100086.16;;;12.25;56.42
56582;BME280;42463;52.214;21.238;2023-03-22T10:31:26;100088.34;;;12.19;56.19
56582;BME280;42463;52.214;21.238;2023-03-22T10:33:32;100092.91;;;12.16;56.60
56582;BME280;42463;52.214;21.238;2023-03-22T10:35:37;100093.30;;;12.19;56.71
56582;BME280;42463;52.214;21.238;2023-03-22T10:37:45;100089.09;;;12.22;56.65
56582;BME280;42463;52.214;21.238;2023-03-22T10:39:53;100093.88;;;12.24;56.59
56582;BME280;42463;52.214;21.238;2023-03-22T10:41:59;100090.27;;;12.30;56.52
56582;BME280;42463;52.214;21.238;2023-03-22T10:44:04;100087.89;;;12.35;56.60
56582;BME280;42463;52.214;21.238;2023-03-22T10:46:11;100089.67;;;12.40;56.38
56582;BME280;42463;52.214;21.238;2023-03-22T10:48:19;100090.54;;;12.46;56.47
56582;BME280;42463;52.214;21.238;2023-03-22T10:50:28;100090.02;;;12.50;55.98
56582;BME280;42463;52.214;21.238;2023-03-22T10:52:36;100086.31;;;12.53;56.19
56582;BME280;42463;52.214;21.238;2023-03-22T10:54:42;100088.75;;;12.57;56.29
56582;BME280;42463;52.214;21.238;2023-03-22T10:56:46;100085.04;;;12.59;55.93
56582;BME280;42463;52.214;21.238;2023-03-22T10:58:50;100089.61;;;12.60;55.79
56582;BME280;42463;52.214;21.238;2023-03-22T11:00:55;100089.28;;;12.62;55.94
56582;BME280;42463;52.214;21.238;2023-03-22T11:03:01;100093.09;;;12.64;55.70
56582;BME280;42463;52.214;21.238;2023-03-22T11:05:05;100091.83;;;12.68;55.83
56582;BME280;42463;52.214;21.238;2023-03-22T11:07:12;100090.89;;;12.71;55.51
56582;BME280;42463;52.214;21.238;2023-03-22T11:09:22;100085.77;;;12.72;55.59
56582;BME280;42463;52.214;21.238;2023-03-22T11:11:26;100085.83;;;12.74;55.68
56582;BME280;42463;52.214;21.238;2023-03-22T11:13:31;100090.98;;;12.77;55.70